createdAt,value
2018-12-22T00:01:17.005Z,8.70
2018-12-22T00:03:52.007Z,8.70
2018-12-22T00:06:27.805Z,8.60
2018-12-22T00:09:05.160Z,8.60
2018-12-22T00:11:40.363Z,8.50
2018-12-22T00:14:16.223Z,8.50
2018-12-22T00:16:51.188Z,8.50
2018-12-22T00:19:26.122Z,8.50
2018-12-22T00:22:01.073Z,8.50
2018-12-22T00:24:37.357Z,8.50
2018-12-22T00:27:12.494Z,8.50
2018-12-22T00:29:47.320Z,8.50
2018-12-22T00:32:22.347Z,8.50
2018-12-22T00:34:58.247Z,8.50
2018-12-22T00:37:34.129Z,8.60
2018-12-22T00:40:10.904Z,8.60
2018-12-22T00:42:45.746Z,8.60
2018-12-22T00:45:20.666Z,8.60
2018-12-22T00:47:56.469Z,8.60
2018-12-22T00:50:31.573Z,8.70
2018-12-22T00:53:07.378Z,8.70
2018-12-22T00:55:43.878Z,8.70
2018-12-22T00:58:30.508Z,8.70
2018-12-22T01:00:59.371Z,8.70
2018-12-22T01:03:35.758Z,8.70
2018-12-22T01:06:10.776Z,8.70
2018-12-22T01:08:45.725Z,8.70
2018-12-22T01:11:20.796Z,8.70
2018-12-22T01:13:57.397Z,8.70
2018-12-22T01:16:32.699Z,8.60
2018-12-22T01:19:08.568Z,8.60
2018-12-22T01:21:44.887Z,8.70
2018-12-22T01:24:20.837Z,8.70
2018-12-22T01:26:56.893Z,8.70
2018-12-22T01:29:33.294Z,8.70
2018-12-22T01:32:08.328Z,8.70
2018-12-22T01:34:47.567Z,8.80
2018-12-22T01:37:23.201Z,8.70
2018-12-22T01:39:59.039Z,8.70
2018-12-22T01:42:33.954Z,8.70
2018-12-22T01:45:11.418Z,8.70
2018-12-22T01:47:50.938Z,8.60
2018-12-22T01:50:26.643Z,8.50
2018-12-22T01:53:15.218Z,8.60
2018-12-22T01:56:01.002Z,8.60
2018-12-22T01:58:37.088Z,8.70
2018-12-22T02:01:12.160Z,8.70
2018-12-22T02:03:47.967Z,8.70
2018-12-22T02:06:25.616Z,8.80
2018-12-22T02:09:01.446Z,8.80
2018-12-22T02:11:37.330Z,8.80
2018-12-22T02:14:12.363Z,8.80
2018-12-22T02:16:48.858Z,8.80
2018-12-22T02:19:24.080Z,8.90
2018-12-22T02:22:00.778Z,8.90
2018-12-22T02:24:35.786Z,8.90
2018-12-22T02:27:12.302Z,8.90
2018-12-22T02:29:48.287Z,8.80
2018-12-22T02:32:23.269Z,8.80
2018-12-22T02:35:00.322Z,8.80
2018-12-22T02:37:35.626Z,8.80
2018-12-22T02:40:11.429Z,8.80
2018-12-22T02:42:47.391Z,8.80
2018-12-22T02:45:23.272Z,8.80
2018-12-22T02:47:59.329Z,8.80
2018-12-22T02:50:35.330Z,8.80
2018-12-22T02:53:10.797Z,8.80
2018-12-22T02:55:46.753Z,8.80
2018-12-22T02:58:21.785Z,8.80
2018-12-22T03:00:57.922Z,8.80
2018-12-22T03:03:34.620Z,8.80
2018-12-22T03:06:10.535Z,8.70
2018-12-22T03:08:46.672Z,8.80
2018-12-22T03:11:22.760Z,8.80
2018-12-22T03:13:58.867Z,8.70
2018-12-22T03:16:35.894Z,8.70
2018-12-22T03:19:12.943Z,8.70
2018-12-22T03:21:49.263Z,8.70
2018-12-22T03:24:31.437Z,8.70
2018-12-22T03:27:10.377Z,8.70
2018-12-22T03:29:45.590Z,8.70
2018-12-22T03:32:21.499Z,8.70
2018-12-22T03:34:57.410Z,8.70
2018-12-22T03:37:33.090Z,8.70
2018-12-22T03:40:08.597Z,8.70
2018-12-22T03:42:43.773Z,8.70
2018-12-22T03:45:19.544Z,8.70
2018-12-22T03:47:57.341Z,8.70
2018-12-22T03:50:32.618Z,8.60
2018-12-22T03:53:07.552Z,8.60
2018-12-22T03:55:42.522Z,8.70
2018-12-22T03:58:19.030Z,8.70
2018-12-22T04:00:54.346Z,8.60
2018-12-22T04:03:30.497Z,8.70
2018-12-22T04:06:06.155Z,8.70
2018-12-22T04:08:42.009Z,8.70
2018-12-22T04:11:18.062Z,8.70
2018-12-22T04:13:53.676Z,8.70
2018-12-22T04:16:30.256Z,8.70
2018-12-22T04:19:06.245Z,8.70
2018-12-22T04:21:43.317Z,8.70
2018-12-22T04:24:18.780Z,8.70
2018-12-22T04:26:54.151Z,8.70
2018-12-22T04:29:33.926Z,8.70
2018-12-22T04:32:06.781Z,8.70
2018-12-22T04:34:42.671Z,8.70
2018-12-22T04:37:18.424Z,8.70
2018-12-22T04:39:55.297Z,8.60
2018-12-22T04:42:31.802Z,8.60
2018-12-22T04:45:07.232Z,8.70
2018-12-22T04:47:43.286Z,8.60
2018-12-22T04:50:20.702Z,8.70
2018-12-22T04:52:57.186Z,8.60
2018-12-22T04:55:34.164Z,8.60
2018-12-22T04:58:10.337Z,8.60
2018-12-22T05:00:46.486Z,8.60
2018-12-22T05:03:22.192Z,8.60
2018-12-22T05:05:59.148Z,8.50
2018-12-22T05:08:38.852Z,8.50
2018-12-22T05:11:13.967Z,8.50
2018-12-22T05:13:49.645Z,8.50
2018-12-22T05:16:24.778Z,8.50
2018-12-22T05:19:00.463Z,8.50
2018-12-22T05:21:36.327Z,8.50
2018-12-22T05:24:12.186Z,8.50
2018-12-22T05:26:48.250Z,8.50
2018-12-22T05:29:24.792Z,8.50
2018-12-22T05:32:01.259Z,8.50
2018-12-22T05:34:36.787Z,8.40
2018-12-22T05:37:12.812Z,8.40
2018-12-22T05:39:49.310Z,8.40
2018-12-22T05:42:24.477Z,8.40
2018-12-22T05:45:01.427Z,8.40
2018-12-22T05:47:37.330Z,8.40
2018-12-22T05:50:14.110Z,8.50
2018-12-22T05:52:49.274Z,8.50
2018-12-22T05:55:26.158Z,8.50
2018-12-22T05:58:01.810Z,8.50
2018-12-22T06:00:37.686Z,8.50
2018-12-22T06:03:13.503Z,8.50
2018-12-22T06:05:48.603Z,8.50
2018-12-22T06:08:23.657Z,8.50
2018-12-22T06:10:59.893Z,8.50
2018-12-22T06:13:35.290Z,8.50
2018-12-22T06:16:11.215Z,8.50
2018-12-22T06:18:47.067Z,8.60
2018-12-22T06:21:23.726Z,8.60
2018-12-22T06:23:58.930Z,8.60
2018-12-22T06:26:34.617Z,8.60
2018-12-22T06:29:10.516Z,8.60
2018-12-22T06:31:48.227Z,8.60
2018-12-22T06:34:22.965Z,8.60
2018-12-22T06:36:58.779Z,8.60
2018-12-22T06:39:33.775Z,8.60
2018-12-22T06:42:08.573Z,8.60
2018-12-22T06:44:45.492Z,8.70
2018-12-22T06:47:21.921Z,8.70
2018-12-22T06:49:57.702Z,8.60
2018-12-22T06:52:34.711Z,8.60
2018-12-22T06:55:10.814Z,8.70
2018-12-22T06:57:49.540Z,8.70
2018-12-22T07:00:36.734Z,8.70
2018-12-22T07:03:21.374Z,8.70
2018-12-22T07:06:01.034Z,8.70
2018-12-22T07:08:44.518Z,8.70
2018-12-22T07:11:20.081Z,8.70
2018-12-22T07:13:59.909Z,8.70
2018-12-22T07:16:38.107Z,8.70
2018-12-22T07:19:31.084Z,8.70
2018-12-22T07:22:14.122Z,8.70
2018-12-22T07:28:03.253Z,8.70
2018-12-22T07:30:41.057Z,8.70
2018-12-22T07:33:16.864Z,8.70
2018-12-22T07:35:53.584Z,8.70
2018-12-22T07:38:33.072Z,8.80
2018-12-22T07:41:17.441Z,8.80
2018-12-22T07:43:54.313Z,8.80
2018-12-22T07:46:32.564Z,8.80
2018-12-22T07:49:09.215Z,8.80
2018-12-22T07:51:44.759Z,8.80
2018-12-22T07:54:20.800Z,8.80
2018-12-22T07:56:58.718Z,8.80
2018-12-22T07:59:41.241Z,8.80
2018-12-22T08:02:16.608Z,8.80
2018-12-22T08:05:01.052Z,8.80
2018-12-22T08:07:37.677Z,8.90
2018-12-22T08:10:14.463Z,8.80
2018-12-22T08:12:53.173Z,8.80
2018-12-22T08:15:29.040Z,8.80
2018-12-22T08:18:04.902Z,8.80
2018-12-22T08:20:41.689Z,8.80
2018-12-22T08:23:19.089Z,8.90
2018-12-22T08:25:56.079Z,8.90
2018-12-22T08:28:51.514Z,8.90
2018-12-22T08:31:29.079Z,8.90
2018-12-22T08:34:06.524Z,8.90
2018-12-22T08:36:42.443Z,8.90
2018-12-22T08:39:19.226Z,8.90
2018-12-22T08:41:56.146Z,8.90
2018-12-22T08:44:32.279Z,9.00
2018-12-22T08:47:14.630Z,9.00
2018-12-22T08:49:51.169Z,9.10
2018-12-22T08:52:36.698Z,9.10
2018-12-22T08:55:14.159Z,9.10
2018-12-22T08:57:52.531Z,9.10
2018-12-22T09:00:28.562Z,9.20
2018-12-22T09:03:06.153Z,9.20
2018-12-22T09:05:41.879Z,9.20
2018-12-22T09:08:18.133Z,9.20
2018-12-22T09:10:54.095Z,9.20
2018-12-22T09:13:30.744Z,9.20
2018-12-22T09:16:07.029Z,9.30
2018-12-22T09:18:45.672Z,9.30
2018-12-22T09:21:21.519Z,9.20
2018-12-22T09:23:58.129Z,9.30
2018-12-22T09:26:33.461Z,9.30
2018-12-22T09:29:09.535Z,9.30
2018-12-22T09:31:45.200Z,9.20
2018-12-22T09:34:21.036Z,9.30
2018-12-22T09:36:57.943Z,9.20
2018-12-22T09:39:34.213Z,9.20
2018-12-22T09:42:09.495Z,9.20
2018-12-22T09:44:44.402Z,9.20
2018-12-22T09:47:23.054Z,9.20
2018-12-22T09:49:58.024Z,9.20
2018-12-22T09:52:33.940Z,9.20
2018-12-22T09:55:09.996Z,9.20
2018-12-22T09:57:47.312Z,9.20
2018-12-22T10:00:22.817Z,9.20
2018-12-22T10:02:59.783Z,9.30
2018-12-22T10:05:40.301Z,9.30
2018-12-22T10:08:16.293Z,9.30
2018-12-22T10:10:57.217Z,9.30
2018-12-22T10:13:32.438Z,9.30
2018-12-22T10:16:27.718Z,9.30
2018-12-22T10:19:09.164Z,9.40
2018-12-22T10:21:50.170Z,9.30
2018-12-22T10:24:26.570Z,9.30
2018-12-22T10:27:04.178Z,9.30
2018-12-22T10:29:41.213Z,9.40
2018-12-22T10:32:16.258Z,9.40
2018-12-22T10:34:51.202Z,9.30
2018-12-22T10:37:26.384Z,9.30
2018-12-22T10:40:02.222Z,9.20
2018-12-22T10:42:38.078Z,9.30
2018-12-22T10:45:13.998Z,9.30
2018-12-22T10:47:51.535Z,9.40
2018-12-22T10:50:26.705Z,9.50
2018-12-22T10:53:02.475Z,9.60
2018-12-22T10:55:38.334Z,9.60
2018-12-22T10:58:14.204Z,9.60
2018-12-22T11:00:50.850Z,9.70
2018-12-22T11:03:26.624Z,9.60
2018-12-22T11:06:02.728Z,9.60
2018-12-22T11:08:39.358Z,9.60
2018-12-22T11:11:14.476Z,9.60
2018-12-22T11:13:50.321Z,9.60
2018-12-22T11:16:25.987Z,9.60
2018-12-22T11:19:00.807Z,9.60
2018-12-22T11:21:35.762Z,9.70
2018-12-22T11:24:13.566Z,11.70
2018-12-22T11:26:48.628Z,14.50
2018-12-22T11:29:24.440Z,16.80
2018-12-22T11:32:00.276Z,17.90
2018-12-22T11:34:35.942Z,19.00
2018-12-22T11:37:10.975Z,19.20
2018-12-22T11:39:45.797Z,17.60
2018-12-22T11:42:23.445Z,15.40
2018-12-22T11:45:04.063Z,18.30
2018-12-22T11:47:51.695Z,18.80
2018-12-22T11:50:28.059Z,18.00
2018-12-22T11:53:06.962Z,15.50
2018-12-22T11:55:45.771Z,14.90
2018-12-22T11:58:21.814Z,15.30
2018-12-22T12:00:58.114Z,17.70
2018-12-22T12:03:33.648Z,19.30
2018-12-22T12:06:09.402Z,19.60
2018-12-22T12:08:48.193Z,17.30
2018-12-22T12:11:23.214Z,17.80
2018-12-22T12:14:07.494Z,15.70
2018-12-22T12:16:55.278Z,14.60
2018-12-22T12:19:32.906Z,18.60
2018-12-22T12:22:08.098Z,21.00
2018-12-22T12:24:43.118Z,22.50
2018-12-22T12:27:18.926Z,22.50
2018-12-22T12:29:54.759Z,18.90
2018-12-22T12:32:30.603Z,16.90
2018-12-22T12:35:07.047Z,15.20
2018-12-22T12:37:42.027Z,14.30
2018-12-22T12:40:18.556Z,14.20
2018-12-22T12:42:54.554Z,13.90
2018-12-22T12:45:30.020Z,13.50
2018-12-22T12:48:06.184Z,13.60
2018-12-22T12:50:42.564Z,13.70
2018-12-22T12:53:18.568Z,13.10
2018-12-22T12:55:53.678Z,12.40
2018-12-22T12:58:29.546Z,12.10
2018-12-22T13:01:05.418Z,11.90
2018-12-22T13:03:40.541Z,11.80
2018-12-22T13:06:17.310Z,11.70
2018-12-22T13:08:54.208Z,11.60
2018-12-22T13:11:31.079Z,11.60
2018-12-22T13:14:10.524Z,12.30
2018-12-22T13:16:46.378Z,12.30
2018-12-22T13:19:21.543Z,12.20
2018-12-22T13:21:57.416Z,12.10
2018-12-22T13:24:34.819Z,11.90
2018-12-22T13:27:09.932Z,11.80
2018-12-22T13:29:45.882Z,11.80
2018-12-22T13:32:22.625Z,11.60
2018-12-22T13:34:59.265Z,11.60
2018-12-22T13:37:34.390Z,11.50
2018-12-22T13:40:10.489Z,11.50
2018-12-22T13:42:46.902Z,11.50
2018-12-22T13:45:22.742Z,11.40
2018-12-22T13:47:59.977Z,11.30
2018-12-22T13:50:35.593Z,11.20
2018-12-22T13:53:11.366Z,11.20
2018-12-22T13:55:47.283Z,11.10
2018-12-22T13:58:24.243Z,11.10
2018-12-22T14:01:00.694Z,11.10
2018-12-22T14:03:38.687Z,11.00
2018-12-22T14:06:19.286Z,10.90
2018-12-22T14:08:55.635Z,10.80
2018-12-22T14:11:31.534Z,10.80
2018-12-22T14:14:07.531Z,10.80
2018-12-22T14:16:55.965Z,10.80
2018-12-22T14:19:32.328Z,10.80
2018-12-22T14:22:08.113Z,10.80
2018-12-22T14:24:47.233Z,10.80
2018-12-22T14:27:22.871Z,10.80
2018-12-22T14:29:59.762Z,10.80
2018-12-22T14:32:35.547Z,10.80
2018-12-22T14:35:20.415Z,10.70
2018-12-22T14:37:55.950Z,10.70
2018-12-22T14:40:32.107Z,10.70
2018-12-22T14:43:08.180Z,10.70
2018-12-22T14:45:44.810Z,10.70
2018-12-22T14:48:22.489Z,10.70
2018-12-22T14:50:59.576Z,10.70
2018-12-22T14:53:36.486Z,10.70
2018-12-22T14:56:23.366Z,10.70
2018-12-22T14:58:59.274Z,10.60
2018-12-22T15:01:36.011Z,10.60
2018-12-22T15:04:17.684Z,10.60
2018-12-22T15:06:53.930Z,10.60
2018-12-22T15:09:33.773Z,10.50
2018-12-22T15:12:23.143Z,10.50
2018-12-22T15:15:20.599Z,10.50
2018-12-22T15:21:17.310Z,10.50
2018-12-22T15:23:52.458Z,10.50
2018-12-22T15:26:41.614Z,10.50
2018-12-22T15:29:31.395Z,10.50
2018-12-22T15:32:15.744Z,10.40
2018-12-22T15:34:51.926Z,10.40
2018-12-22T15:37:26.912Z,10.40
2018-12-22T15:40:06.232Z,10.30
2018-12-22T15:42:42.515Z,10.30
2018-12-22T15:51:42.208Z,10.30
2018-12-22T15:54:24.682Z,10.20
2018-12-22T15:57:04.190Z,10.20
2018-12-22T15:59:46.919Z,10.20
2018-12-22T16:05:29.196Z,10.20
2018-12-22T16:08:22.182Z,10.10
2018-12-22T16:14:19.144Z,10.00
2018-12-22T16:16:56.541Z,10.00
2018-12-22T16:19:33.485Z,10.00
2018-12-22T16:22:14.123Z,10.00
2018-12-22T16:24:49.278Z,10.00
2018-12-22T16:27:30.713Z,10.00
2018-12-22T16:30:13.188Z,10.00
2018-12-22T16:33:01.702Z,10.00
2018-12-22T16:35:35.642Z,10.00
2018-12-22T16:38:10.582Z,10.00
2018-12-22T16:40:46.494Z,9.90
2018-12-22T16:43:24.200Z,9.90
2018-12-22T16:45:59.430Z,9.80
2018-12-22T16:48:40.487Z,9.70
2018-12-22T16:51:17.210Z,9.70
2018-12-22T16:53:53.167Z,9.70
2018-12-22T16:56:28.892Z,9.60
2018-12-22T16:59:05.103Z,9.70
2018-12-22T17:01:52.157Z,9.60
2018-12-22T17:04:27.802Z,9.50
2018-12-22T17:07:04.437Z,9.50
2018-12-22T17:09:42.900Z,9.50
2018-12-22T17:12:19.913Z,9.50
2018-12-22T17:14:55.644Z,9.40
2018-12-22T17:17:31.001Z,9.40
2018-12-22T17:20:09.966Z,9.40
2018-12-22T17:23:04.494Z,9.40
2018-12-22T17:25:45.478Z,9.40
2018-12-22T17:28:28.242Z,9.40
2018-12-22T17:31:01.824Z,9.40
2018-12-22T17:33:39.631Z,9.40
2018-12-22T17:36:18.515Z,9.40
2018-12-22T17:38:53.897Z,9.40
2018-12-22T17:41:29.586Z,9.40
2018-12-22T17:44:09.107Z,9.40
2018-12-22T17:46:44.396Z,9.40
2018-12-22T17:49:20.323Z,9.40
2018-12-22T17:51:56.015Z,9.40
2018-12-22T17:54:34.652Z,9.40
2018-12-22T17:57:09.985Z,9.40
2018-12-22T17:59:45.952Z,9.40
2018-12-22T18:02:29.946Z,9.40
2018-12-22T18:05:19.562Z,9.40
2018-12-22T18:08:01.361Z,9.30
2018-12-22T18:10:38.966Z,9.30
2018-12-22T18:13:15.547Z,9.30
2018-12-22T18:15:51.122Z,9.30
2018-12-22T18:18:27.114Z,9.30
2018-12-22T18:21:02.462Z,9.20
2018-12-22T18:23:40.774Z,9.30
2018-12-22T18:26:16.008Z,9.20
2018-12-22T18:28:51.795Z,9.20
2018-12-22T18:31:28.586Z,9.20
2018-12-22T18:34:05.399Z,9.20
2018-12-22T18:36:40.418Z,9.20
2018-12-22T18:39:15.378Z,9.20
2018-12-22T18:41:51.124Z,9.30
2018-12-22T18:44:28.728Z,9.40
2018-12-22T18:47:04.667Z,9.40
2018-12-22T18:49:40.464Z,9.40
2018-12-22T18:52:16.046Z,9.30
2018-12-22T18:54:51.203Z,9.30
2018-12-22T18:57:28.156Z,9.30
2018-12-22T19:00:16.999Z,9.30
2018-12-22T19:03:04.505Z,9.20
2018-12-22T19:08:43.802Z,9.20
2018-12-22T19:11:24.695Z,9.20
2018-12-22T19:14:05.926Z,9.20
2018-12-22T19:16:58.976Z,9.20
2018-12-22T19:19:44.123Z,9.20
2018-12-22T19:22:29.147Z,9.20
2018-12-22T19:25:08.569Z,9.20
2018-12-22T19:30:49.653Z,9.20
2018-12-22T19:33:43.110Z,9.20
2018-12-22T19:36:33.416Z,9.20
2018-12-22T19:39:08.639Z,9.20
2018-12-22T19:41:44.538Z,9.20
2018-12-22T19:53:33.086Z,9.30
2018-12-22T19:59:12.139Z,9.20
2018-12-22T20:01:48.626Z,9.20
2018-12-22T20:04:24.475Z,9.20
2018-12-22T20:07:09.075Z,9.10
2018-12-22T20:09:50.047Z,9.10
2018-12-22T20:18:41.095Z,9.00
2018-12-22T20:21:22.480Z,9.00
2018-12-22T20:24:05.674Z,9.00
2018-12-22T20:26:47.808Z,9.00
2018-12-22T20:29:24.043Z,9.10
2018-12-22T20:32:09.149Z,9.00
2018-12-22T20:34:44.361Z,9.00
2018-12-22T20:37:20.110Z,9.00
2018-12-22T20:39:55.834Z,9.00
2018-12-22T20:45:37.122Z,9.00
2018-12-22T20:48:20.683Z,9.00
2018-12-22T20:50:56.857Z,8.90
2018-12-22T20:53:39.948Z,8.90
2018-12-22T20:56:17.161Z,8.90
2018-12-22T20:59:00.890Z,8.90
2018-12-22T21:01:38.039Z,9.00
2018-12-22T21:07:33.489Z,9.00
2018-12-22T21:10:18.574Z,9.00
2018-12-22T21:12:54.060Z,9.00
2018-12-22T21:15:30.528Z,9.00
2018-12-22T21:18:14.041Z,9.10
2018-12-22T21:21:06.986Z,9.10
2018-12-22T21:23:44.126Z,9.10
2018-12-22T21:26:34.415Z,9.10
2018-12-22T21:29:17.227Z,9.10
2018-12-22T21:31:52.994Z,9.10
2018-12-22T21:34:36.495Z,9.10
2018-12-22T21:37:13.542Z,9.10
2018-12-22T21:39:48.660Z,9.10
2018-12-22T21:45:27.606Z,9.10
2018-12-22T21:48:09.927Z,9.10
2018-12-22T21:53:59.437Z,9.10
2018-12-22T21:56:40.148Z,9.10
2018-12-22T21:59:16.158Z,9.10
2018-12-22T22:01:53.442Z,9.10
2018-12-22T22:04:37.086Z,9.10
2018-12-22T22:07:11.928Z,9.10
2018-12-22T22:09:47.929Z,9.00
2018-12-22T22:12:23.525Z,9.10
2018-12-22T22:14:59.591Z,9.00
2018-12-22T22:17:36.601Z,9.00
2018-12-22T22:20:13.106Z,9.00
2018-12-22T22:22:47.920Z,9.00
2018-12-22T22:25:23.725Z,8.90
2018-12-22T22:27:58.535Z,8.90
2018-12-22T22:30:33.591Z,8.90
2018-12-22T22:33:08.435Z,8.90
2018-12-22T22:35:44.306Z,8.90
2018-12-22T22:38:20.194Z,8.80
2018-12-22T22:40:55.868Z,8.70
2018-12-22T22:43:30.687Z,8.60
2018-12-22T22:46:07.725Z,8.60
2018-12-22T22:48:45.267Z,8.50
2018-12-22T22:51:20.444Z,8.50
2018-12-22T22:53:56.098Z,8.50
2018-12-22T22:56:31.983Z,8.40
2018-12-22T22:59:07.922Z,8.40
2018-12-22T23:01:43.786Z,8.40
2018-12-22T23:04:19.597Z,8.40
2018-12-22T23:06:56.778Z,8.30
2018-12-22T23:09:32.566Z,8.30
2018-12-22T23:12:08.947Z,8.20
2018-12-22T23:14:44.363Z,8.20
2018-12-22T23:17:20.118Z,8.20
2018-12-22T23:19:56.928Z,8.10
2018-12-22T23:22:31.966Z,8.10
2018-12-22T23:25:08.008Z,8.10
2018-12-22T23:27:43.719Z,8.10
2018-12-22T23:30:18.607Z,8.10
2018-12-22T23:32:54.496Z,8.00
2018-12-22T23:35:30.418Z,8.00
2018-12-22T23:38:06.259Z,8.00
2018-12-22T23:40:42.043Z,8.00
2018-12-22T23:43:17.860Z,8.00
2018-12-22T23:45:54.167Z,7.90
2018-12-22T23:48:29.588Z,7.90
2018-12-22T23:51:04.731Z,7.90
2018-12-22T23:53:40.625Z,7.90
2018-12-22T23:56:15.671Z,7.80
2018-12-22T23:58:50.607Z,7.80
